sensor_id;sensor_type;location;lat;lon;timestamp;P1;durP1;ratioP1;P2;durP2;ratioP2
24206;SDS011;12351;52.284;9.160;2023-03-01T00:02:42;3.50;;;2.10;;
24206;SDS011;12351;52.284;9.160;2023-03-01T00:05:29;3.13;;;2.03;;
24206;SDS011;12351;52.284;9.160;2023-03-01T00:08:15;3.90;;;2.50;;
24206;SDS011;12351;52.284;9.160;2023-03-01T00:11:04;3.97;;;1.83;;
24206;SDS011;12351;52.284;9.160;2023-03-01T00:13:52;4.77;;;2.50;;
24206;SDS011;12351;52.284;9.160;2023-03-01T00:16:41;5.17;;;2.27;;
24206;SDS011;12351;52.284;9.160;2023-03-01T00:19:28;3.73;;;2.40;;
24206;SDS011;12351;52.284;9.160;2023-03-01T00:22:16;3.57;;;2.20;;
24206;SDS011;12351;52.284;9.160;2023-03-01T00:25:03;2.50;;;1.93;;
24206;SDS011;12351;52.284;9.160;2023-03-01T00:27:50;4.47;;;1.80;;
24206;SDS011;12351;52.284;9.160;2023-03-01T00:30:36;3.30;;;2.10;;
24206;SDS011;12351;52.284;9.160;2023-03-01T00:33:22;3.33;;;1.83;;
24206;SDS011;12351;52.284;9.160;2023-03-01T00:36:09;4.60;;;2.20;;
24206;SDS011;12351;52.284;9.160;2023-03-01T00:38:57;4.67;;;2.10;;
24206;SDS011;12351;52.284;9.160;2023-03-01T00:41:44;5.70;;;1.93;;
24206;SDS011;12351;52.284;9.160;2023-03-01T00:44:30;3.03;;;1.97;;
24206;SDS011;12351;52.284;9.160;2023-03-01T00:47:20;3.10;;;1.97;;
24206;SDS011;12351;52.284;9.160;2023-03-01T00:50:10;3.70;;;2.30;;
24206;SDS011;12351;52.284;9.160;2023-03-01T00:53:00;5.60;;;2.20;;
24206;SDS011;12351;52.284;9.160;2023-03-01T00:55:49;3.30;;;1.97;;
24206;SDS011;12351;52.284;9.160;2023-03-01T00:58:42;3.47;;;2.23;;
24206;SDS011;12351;52.284;9.160;2023-03-01T01:01:33;3.37;;;2.00;;
24206;SDS011;12351;52.284;9.160;2023-03-01T01:04:23;3.40;;;2.03;;
24206;SDS011;12351;52.284;9.160;2023-03-01T01:07:14;2.97;;;2.10;;
24206;SDS011;12351;52.284;9.160;2023-03-01T01:10:06;3.93;;;2.20;;
24206;SDS011;12351;52.284;9.160;2023-03-01T01:12:56;4.87;;;2.23;;
24206;SDS011;12351;52.284;9.160;2023-03-01T01:15:46;3.37;;;1.80;;
24206;SDS011;12351;52.284;9.160;2023-03-01T01:18:35;3.43;;;2.10;;
24206;SDS011;12351;52.284;9.160;2023-03-01T01:21:26;3.53;;;2.03;;
24206;SDS011;12351;52.284;9.160;2023-03-01T01:24:15;2.53;;;1.60;;
24206;SDS011;12351;52.284;9.160;2023-03-01T01:27:04;3.77;;;1.77;;
24206;SDS011;12351;52.284;9.160;2023-03-01T01:29:55;3.80;;;1.80;;
24206;SDS011;12351;52.284;9.160;2023-03-01T01:32:44;4.97;;;2.10;;
24206;SDS011;12351;52.284;9.160;2023-03-01T01:35:33;4.87;;;2.30;;
24206;SDS011;12351;52.284;9.160;2023-03-01T01:38:21;4.07;;;2.30;;
24206;SDS011;12351;52.284;9.160;2023-03-01T01:41:11;3.60;;;2.40;;
24206;SDS011;12351;52.284;9.160;2023-03-01T01:49:42;5.47;;;2.40;;
24206;SDS011;12351;52.284;9.160;2023-03-01T01:52:31;4.57;;;2.40;;
24206;SDS011;12351;52.284;9.160;2023-03-01T01:55:21;4.13;;;2.40;;
24206;SDS011;12351;52.284;9.160;2023-03-01T01:58:12;5.07;;;2.43;;
24206;SDS011;12351;52.284;9.160;2023-03-01T02:01:01;4.07;;;2.50;;
24206;SDS011;12351;52.284;9.160;2023-03-01T02:03:54;4.63;;;2.40;;
24206;SDS011;12351;52.284;9.160;2023-03-01T02:06:45;6.10;;;2.23;;
24206;SDS011;12351;52.284;9.160;2023-03-01T02:09:31;5.57;;;2.60;;
24206;SDS011;12351;52.284;9.160;2023-03-01T02:12:23;5.73;;;2.60;;
24206;SDS011;12351;52.284;9.160;2023-03-01T02:15:12;3.87;;;2.13;;
24206;SDS011;12351;52.284;9.160;2023-03-01T02:18:02;3.60;;;2.20;;
24206;SDS011;12351;52.284;9.160;2023-03-01T02:20:59;5.55;;;2.85;;
24206;SDS011;12351;52.284;9.160;2023-03-01T02:23:44;5.80;;;2.77;;
24206;SDS011;12351;52.284;9.160;2023-03-01T02:29:26;4.83;;;2.35;;
24206;SDS011;12351;52.284;9.160;2023-03-01T02:32:18;4.77;;;2.87;;
24206;SDS011;12351;52.284;9.160;2023-03-01T02:35:12;6.07;;;2.80;;
24206;SDS011;12351;52.284;9.160;2023-03-01T02:38:03;4.40;;;2.40;;
24206;SDS011;12351;52.284;9.160;2023-03-01T02:40:51;3.73;;;2.60;;
24206;SDS011;12351;52.284;9.160;2023-03-01T02:43:42;5.57;;;2.60;;
24206;SDS011;12351;52.284;9.160;2023-03-01T02:46:33;4.20;;;2.53;;
24206;SDS011;12351;52.284;9.160;2023-03-01T02:57:54;5.50;;;3.20;;
24206;SDS011;12351;52.284;9.160;2023-03-01T03:03:36;4.00;;;2.55;;
24206;SDS011;12351;52.284;9.160;2023-03-01T03:06:25;5.27;;;3.07;;
24206;SDS011;12351;52.284;9.160;2023-03-01T03:09:17;5.47;;;2.90;;
24206;SDS011;12351;52.284;9.160;2023-03-01T03:14:56;3.90;;;2.30;;
24206;SDS011;12351;52.284;9.160;2023-03-01T03:17:44;5.53;;;3.30;;
24206;SDS011;12351;52.284;9.160;2023-03-01T03:20:36;6.07;;;3.17;;
24206;SDS011;12351;52.284;9.160;2023-03-01T03:23:24;4.27;;;2.80;;
24206;SDS011;12351;52.284;9.160;2023-03-01T03:26:14;4.73;;;3.07;;
24206;SDS011;12351;52.284;9.160;2023-03-01T03:29:05;5.37;;;2.83;;
24206;SDS011;12351;52.284;9.160;2023-03-01T03:31:53;5.20;;;2.40;;
24206;SDS011;12351;52.284;9.160;2023-03-01T03:34:42;5.43;;;2.80;;
24206;SDS011;12351;52.284;9.160;2023-03-01T03:37:31;5.23;;;3.10;;
24206;SDS011;12351;52.284;9.160;2023-03-01T03:40:24;6.67;;;3.33;;
24206;SDS011;12351;52.284;9.160;2023-03-01T03:43:15;4.50;;;2.43;;
24206;SDS011;12351;52.284;9.160;2023-03-01T03:46:03;6.40;;;2.73;;
24206;SDS011;12351;52.284;9.160;2023-03-01T03:48:53;5.53;;;2.77;;
24206;SDS011;12351;52.284;9.160;2023-03-01T03:51:44;4.23;;;2.60;;
24206;SDS011;12351;52.284;9.160;2023-03-01T03:54:34;4.83;;;2.53;;
24206;SDS011;12351;52.284;9.160;2023-03-01T03:57:24;5.93;;;2.53;;
24206;SDS011;12351;52.284;9.160;2023-03-01T04:00:14;4.63;;;2.80;;
24206;SDS011;12351;52.284;9.160;2023-03-01T04:03:04;6.80;;;2.77;;
24206;SDS011;12351;52.284;9.160;2023-03-01T04:05:53;7.37;;;2.20;;
24206;SDS011;12351;52.284;9.160;2023-03-01T04:08:43;4.20;;;2.30;;
24206;SDS011;12351;52.284;9.160;2023-03-01T04:11:34;7.30;;;2.27;;
24206;SDS011;12351;52.284;9.160;2023-03-01T04:14:23;5.17;;;2.30;;
24206;SDS011;12351;52.284;9.160;2023-03-01T04:17:14;4.10;;;2.47;;
24206;SDS011;12351;52.284;9.160;2023-03-01T04:20:04;6.10;;;2.27;;
24206;SDS011;12351;52.284;9.160;2023-03-01T04:22:59;3.77;;;2.20;;
24206;SDS011;12351;52.284;9.160;2023-03-01T04:25:50;2.37;;;1.65;;
24206;SDS011;12351;52.284;9.160;2023-03-01T04:28:41;3.53;;;1.97;;
24206;SDS011;12351;52.284;9.160;2023-03-01T04:31:29;4.07;;;2.20;;
24206;SDS011;12351;52.284;9.160;2023-03-01T04:34:19;4.20;;;2.37;;
24206;SDS011;12351;52.284;9.160;2023-03-01T04:37:09;2.70;;;1.87;;
24206;SDS011;12351;52.284;9.160;2023-03-01T04:40:01;3.70;;;2.20;;
24206;SDS011;12351;52.284;9.160;2023-03-01T04:42:53;5.27;;;2.33;;
24206;SDS011;12351;52.284;9.160;2023-03-01T04:45:41;3.17;;;2.30;;
24206;SDS011;12351;52.284;9.160;2023-03-01T04:48:30;5.10;;;2.43;;
24206;SDS011;12351;52.284;9.160;2023-03-01T04:51:18;3.20;;;2.10;;
24206;SDS011;12351;52.284;9.160;2023-03-01T04:54:09;5.33;;;2.20;;
24206;SDS011;12351;52.284;9.160;2023-03-01T04:56:56;5.17;;;2.30;;
24206;SDS011;12351;52.284;9.160;2023-03-01T04:59:46;7.60;;;2.30;;
24206;SDS011;12351;52.284;9.160;2023-03-01T05:02:38;4.97;;;2.00;;
24206;SDS011;12351;52.284;9.160;2023-03-01T05:05:28;3.47;;;2.03;;
24206;SDS011;12351;52.284;9.160;2023-03-01T05:08:19;3.10;;;2.00;;
24206;SDS011;12351;52.284;9.160;2023-03-01T05:11:08;3.50;;;1.70;;
24206;SDS011;12351;52.284;9.160;2023-03-01T05:13:59;3.97;;;2.00;;
24206;SDS011;12351;52.284;9.160;2023-03-01T05:16:49;3.50;;;2.00;;
24206;SDS011;12351;52.284;9.160;2023-03-01T05:19:39;3.63;;;1.77;;
24206;SDS011;12351;52.284;9.160;2023-03-01T05:22:28;3.23;;;1.97;;
24206;SDS011;12351;52.284;9.160;2023-03-01T05:25:17;3.93;;;2.20;;
24206;SDS011;12351;52.284;9.160;2023-03-01T05:28:10;4.30;;;2.30;;
24206;SDS011;12351;52.284;9.160;2023-03-01T05:30:58;3.17;;;1.93;;
24206;SDS011;12351;52.284;9.160;2023-03-01T05:33:47;5.73;;;1.83;;
24206;SDS011;12351;52.284;9.160;2023-03-01T05:36:37;4.80;;;2.23;;
24206;SDS011;12351;52.284;9.160;2023-03-01T05:39:26;3.93;;;2.20;;
24206;SDS011;12351;52.284;9.160;2023-03-01T05:42:16;3.63;;;2.03;;
24206;SDS011;12351;52.284;9.160;2023-03-01T05:45:10;3.25;;;1.90;;
24206;SDS011;12351;52.284;9.160;2023-03-01T05:47:58;4.23;;;1.90;;
24206;SDS011;12351;52.284;9.160;2023-03-01T05:50:49;4.73;;;1.87;;
24206;SDS011;12351;52.284;9.160;2023-03-01T05:53:41;4.67;;;2.50;;
24206;SDS011;12351;52.284;9.160;2023-03-01T05:56:29;4.63;;;2.10;;
24206;SDS011;12351;52.284;9.160;2023-03-01T06:02:07;5.00;;;2.27;;
24206;SDS011;12351;52.284;9.160;2023-03-01T06:04:57;4.00;;;2.70;;
24206;SDS011;12351;52.284;9.160;2023-03-01T06:07:46;2.93;;;1.97;;
24206;SDS011;12351;52.284;9.160;2023-03-01T06:10:35;4.97;;;2.27;;
24206;SDS011;12351;52.284;9.160;2023-03-01T06:13:24;4.40;;;2.40;;
24206;SDS011;12351;52.284;9.160;2023-03-01T06:16:15;3.40;;;2.23;;
24206;SDS011;12351;52.284;9.160;2023-03-01T06:19:06;5.07;;;2.50;;
24206;SDS011;12351;52.284;9.160;2023-03-01T06:21:55;5.10;;;2.00;;
24206;SDS011;12351;52.284;9.160;2023-03-01T06:24:48;4.50;;;2.65;;
24206;SDS011;12351;52.284;9.160;2023-03-01T06:27:38;4.63;;;2.17;;
24206;SDS011;12351;52.284;9.160;2023-03-01T06:33:19;3.58;;;2.20;;
24206;SDS011;12351;52.284;9.160;2023-03-01T06:36:09;4.60;;;2.50;;
24206;SDS011;12351;52.284;9.160;2023-03-01T06:38:59;4.57;;;2.50;;
24206;SDS011;12351;52.284;9.160;2023-03-01T06:41:50;3.73;;;2.23;;
24206;SDS011;12351;52.284;9.160;2023-03-01T06:44:37;4.63;;;2.60;;
24206;SDS011;12351;52.284;9.160;2023-03-01T06:47:24;5.07;;;2.50;;
24206;SDS011;12351;52.284;9.160;2023-03-01T06:50:14;3.47;;;2.33;;
24206;SDS011;12351;52.284;9.160;2023-03-01T06:53:04;2.93;;;1.83;;
24206;SDS011;12351;52.284;9.160;2023-03-01T06:55:55;4.50;;;2.43;;
24206;SDS011;12351;52.284;9.160;2023-03-01T06:58:46;4.00;;;2.13;;
24206;SDS011;12351;52.284;9.160;2023-03-01T07:01:38;4.40;;;2.20;;
24206;SDS011;12351;52.284;9.160;2023-03-01T07:04:28;3.90;;;2.77;;
24206;SDS011;12351;52.284;9.160;2023-03-01T07:07:18;3.97;;;2.43;;
24206;SDS011;12351;52.284;9.160;2023-03-01T07:10:06;3.50;;;2.17;;
24206;SDS011;12351;52.284;9.160;2023-03-01T07:12:56;4.17;;;2.30;;
24206;SDS011;12351;52.284;9.160;2023-03-01T07:15:46;3.73;;;2.30;;
24206;SDS011;12351;52.284;9.160;2023-03-01T07:18:38;3.90;;;2.40;;
24206;SDS011;12351;52.284;9.160;2023-03-01T07:21:27;4.40;;;1.80;;
24206;SDS011;12351;52.284;9.160;2023-03-01T07:24:17;3.73;;;2.10;;
24206;SDS011;12351;52.284;9.160;2023-03-01T07:27:07;5.30;;;2.60;;
24206;SDS011;12351;52.284;9.160;2023-03-01T07:29:55;4.70;;;2.27;;
24206;SDS011;12351;52.284;9.160;2023-03-01T07:32:47;2.63;;;2.10;;
24206;SDS011;12351;52.284;9.160;2023-03-01T07:35:33;2.80;;;2.07;;
24206;SDS011;12351;52.284;9.160;2023-03-01T07:38:25;4.50;;;2.33;;
24206;SDS011;12351;52.284;9.160;2023-03-01T07:41:14;4.93;;;2.30;;
24206;SDS011;12351;52.284;9.160;2023-03-01T07:44:03;4.03;;;2.30;;
24206;SDS011;12351;52.284;9.160;2023-03-01T07:46:51;5.00;;;2.50;;
24206;SDS011;12351;52.284;9.160;2023-03-01T07:49:40;6.50;;;2.93;;
24206;SDS011;12351;52.284;9.160;2023-03-01T07:52:30;5.77;;;2.83;;
24206;SDS011;12351;52.284;9.160;2023-03-01T07:55:19;4.33;;;2.77;;
24206;SDS011;12351;52.284;9.160;2023-03-01T07:58:11;5.27;;;3.13;;
24206;SDS011;12351;52.284;9.160;2023-03-01T08:01:01;8.03;;;3.30;;
24206;SDS011;12351;52.284;9.160;2023-03-01T08:03:52;5.83;;;3.33;;
24206;SDS011;12351;52.284;9.160;2023-03-01T08:06:43;6.93;;;3.63;;
24206;SDS011;12351;52.284;9.160;2023-03-01T08:09:31;8.07;;;3.77;;
24206;SDS011;12351;52.284;9.160;2023-03-01T08:12:24;5.17;;;3.60;;
24206;SDS011;12351;52.284;9.160;2023-03-01T08:15:14;8.40;;;4.27;;
24206;SDS011;12351;52.284;9.160;2023-03-01T08:18:04;8.73;;;4.20;;
24206;SDS011;12351;52.284;9.160;2023-03-01T08:20:55;7.60;;;4.40;;
24206;SDS011;12351;52.284;9.160;2023-03-01T08:23:47;8.45;;;5.08;;
24206;SDS011;12351;52.284;9.160;2023-03-01T08:26:36;11.07;;;5.50;;
24206;SDS011;12351;52.284;9.160;2023-03-01T08:29:28;7.10;;;4.77;;
24206;SDS011;12351;52.284;9.160;2023-03-01T08:32:15;10.03;;;6.03;;
24206;SDS011;12351;52.284;9.160;2023-03-01T08:35:04;12.03;;;7.20;;
24206;SDS011;12351;52.284;9.160;2023-03-01T08:37:53;12.23;;;6.27;;
24206;SDS011;12351;52.284;9.160;2023-03-01T08:40:43;12.90;;;6.67;;
24206;SDS011;12351;52.284;9.160;2023-03-01T08:43:33;10.63;;;6.40;;
24206;SDS011;12351;52.284;9.160;2023-03-01T08:46:20;10.77;;;6.53;;
24206;SDS011;12351;52.284;9.160;2023-03-01T08:49:10;11.53;;;6.37;;
24206;SDS011;12351;52.284;9.160;2023-03-01T08:51:58;11.83;;;6.77;;
24206;SDS011;12351;52.284;9.160;2023-03-01T08:54:47;11.67;;;6.73;;
24206;SDS011;12351;52.284;9.160;2023-03-01T08:57:38;13.50;;;6.67;;
24206;SDS011;12351;52.284;9.160;2023-03-01T09:00:28;10.33;;;6.33;;
24206;SDS011;12351;52.284;9.160;2023-03-01T09:03:18;11.30;;;6.30;;
24206;SDS011;12351;52.284;9.160;2023-03-01T09:06:10;12.37;;;7.40;;
24206;SDS011;12351;52.284;9.160;2023-03-01T09:14:43;12.97;;;7.40;;
24206;SDS011;12351;52.284;9.160;2023-03-01T09:17:35;13.83;;;6.67;;
24206;SDS011;12351;52.284;9.160;2023-03-01T09:20:25;11.87;;;6.27;;
24206;SDS011;12351;52.284;9.160;2023-03-01T09:23:13;13.23;;;6.90;;
24206;SDS011;12351;52.284;9.160;2023-03-01T09:26:02;11.30;;;6.60;;
24206;SDS011;12351;52.284;9.160;2023-03-01T09:28:55;11.63;;;6.27;;
24206;SDS011;12351;52.284;9.160;2023-03-01T09:31:44;7.87;;;5.47;;
24206;SDS011;12351;52.284;9.160;2023-03-01T09:34:34;9.90;;;6.30;;
24206;SDS011;12351;52.284;9.160;2023-03-01T09:37:24;10.03;;;6.40;;
24206;SDS011;12351;52.284;9.160;2023-03-01T09:40:16;9.97;;;5.93;;
24206;SDS011;12351;52.284;9.160;2023-03-01T09:43:07;13.13;;;6.47;;
24206;SDS011;12351;52.284;9.160;2023-03-01T09:45:57;14.43;;;6.73;;
24206;SDS011;12351;52.284;9.160;2023-03-01T09:48:51;11.93;;;6.20;;
24206;SDS011;12351;52.284;9.160;2023-03-01T09:51:41;12.00;;;6.10;;
24206;SDS011;12351;52.284;9.160;2023-03-01T09:54:38;9.70;;;5.37;;
24206;SDS011;12351;52.284;9.160;2023-03-01T10:05:59;6.97;;;4.87;;
24206;SDS011;12351;52.284;9.160;2023-03-01T10:11:38;9.73;;;5.60;;
24206;SDS011;12351;52.284;9.160;2023-03-01T10:17:19;7.17;;;4.80;;
24206;SDS011;12351;52.284;9.160;2023-03-01T10:22:56;7.27;;;4.80;;
24206;SDS011;12351;52.284;9.160;2023-03-01T10:25:47;8.03;;;5.07;;
24206;SDS011;12351;52.284;9.160;2023-03-01T10:31:25;9.37;;;5.27;;
24206;SDS011;12351;52.284;9.160;2023-03-01T10:34:16;10.77;;;4.90;;
24206;SDS011;12351;52.284;9.160;2023-03-01T10:39:57;9.73;;;5.07;;
24206;SDS011;12351;52.284;9.160;2023-03-01T10:42:48;9.43;;;5.20;;
24206;SDS011;12351;52.284;9.160;2023-03-01T10:45:37;8.53;;;5.37;;
24206;SDS011;12351;52.284;9.160;2023-03-01T10:48:29;8.57;;;5.17;;
24206;SDS011;12351;52.284;9.160;2023-03-01T10:51:21;10.30;;;5.58;;
24206;SDS011;12351;52.284;9.160;2023-03-01T10:57:02;9.40;;;5.57;;
24206;SDS011;12351;52.284;9.160;2023-03-01T10:59:52;10.30;;;5.07;;
24206;SDS011;12351;52.284;9.160;2023-03-01T11:02:43;7.60;;;5.20;;
24206;SDS011;12351;52.284;9.160;2023-03-01T11:05:33;9.50;;;5.53;;
24206;SDS011;12351;52.284;9.160;2023-03-01T11:14:05;9.13;;;5.30;;
24206;SDS011;12351;52.284;9.160;2023-03-01T11:19:52;7.73;;;5.23;;
24206;SDS011;12351;52.284;9.160;2023-03-01T11:22:36;8.30;;;5.33;;
24206;SDS011;12351;52.284;9.160;2023-03-01T11:25:26;9.77;;;5.03;;
24206;SDS011;12351;52.284;9.160;2023-03-01T11:28:17;7.63;;;5.10;;
24206;SDS011;12351;52.284;9.160;2023-03-01T11:31:08;10.50;;;5.80;;
24206;SDS011;12351;52.284;9.160;2023-03-01T11:34:02;8.43;;;5.33;;
24206;SDS011;12351;52.284;9.160;2023-03-01T11:36:55;9.00;;;5.13;;
24206;SDS011;12351;52.284;9.160;2023-03-01T11:39:46;7.40;;;4.90;;
24206;SDS011;12351;52.284;9.160;2023-03-01T11:45:27;8.00;;;5.00;;
24206;SDS011;12351;52.284;9.160;2023-03-01T11:51:09;10.13;;;5.07;;
24206;SDS011;12351;52.284;9.160;2023-03-01T12:08:14;8.97;;;5.27;;
24206;SDS011;12351;52.284;9.160;2023-03-01T12:11:09;9.00;;;5.20;;
24206;SDS011;12351;52.284;9.160;2023-03-01T12:13:59;8.05;;;4.67;;
24206;SDS011;12351;52.284;9.160;2023-03-01T12:19:49;9.33;;;4.93;;
24206;SDS011;12351;52.284;9.160;2023-03-01T12:33:54;8.13;;;4.70;;
24206;SDS011;12351;52.284;9.160;2023-03-01T12:36:46;9.43;;;4.55;;
24206;SDS011;12351;52.284;9.160;2023-03-01T12:42:26;7.58;;;4.47;;
24206;SDS011;12351;52.284;9.160;2023-03-01T12:53:50;7.10;;;3.60;;
24206;SDS011;12351;52.284;9.160;2023-03-01T12:59:31;5.85;;;3.15;;
24206;SDS011;12351;52.284;9.160;2023-03-01T13:08:04;5.42;;;3.47;;
24206;SDS011;12351;52.284;9.160;2023-03-01T13:10:53;4.92;;;3.27;;
24206;SDS011;12351;52.284;9.160;2023-03-01T13:13:43;6.10;;;2.95;;
24206;SDS011;12351;52.284;9.160;2023-03-01T13:22:24;5.20;;;3.33;;
24206;SDS011;12351;52.284;9.160;2023-03-01T13:25:00;5.25;;;3.40;;
24206;SDS011;12351;52.284;9.160;2023-03-01T13:27:45;5.75;;;3.37;;
24206;SDS011;12351;52.284;9.160;2023-03-01T13:41:58;5.40;;;2.80;;
24206;SDS011;12351;52.284;9.160;2023-03-01T13:44:52;6.50;;;2.92;;
24206;SDS011;12351;52.284;9.160;2023-03-01T13:47:42;7.92;;;3.47;;
24206;SDS011;12351;52.284;9.160;2023-03-01T13:50:37;4.37;;;2.80;;
24206;SDS011;12351;52.284;9.160;2023-03-01T13:53:25;6.42;;;3.00;;
24206;SDS011;12351;52.284;9.160;2023-03-01T13:59:06;5.92;;;3.33;;
24206;SDS011;12351;52.284;9.160;2023-03-01T14:01:57;4.97;;;2.90;;
24206;SDS011;12351;52.284;9.160;2023-03-01T14:07:40;5.50;;;2.93;;
24206;SDS011;12351;52.284;9.160;2023-03-01T14:16:17;6.42;;;3.70;;
24206;SDS011;12351;52.284;9.160;2023-03-01T14:21:58;6.80;;;3.92;;
24206;SDS011;12351;52.284;9.160;2023-03-01T14:24:47;6.57;;;3.47;;
24206;SDS011;12351;52.284;9.160;2023-03-01T14:27:36;6.78;;;3.30;;
24206;SDS011;12351;52.284;9.160;2023-03-01T14:30:31;7.10;;;4.20;;
24206;SDS011;12351;52.284;9.160;2023-03-01T14:36:10;6.62;;;2.95;;
24206;SDS011;12351;52.284;9.160;2023-03-01T14:39:15;5.17;;;2.95;;
24206;SDS011;12351;52.284;9.160;2023-03-01T14:41:53;6.03;;;3.50;;
24206;SDS011;12351;52.284;9.160;2023-03-01T14:44:43;4.37;;;3.00;;
24206;SDS011;12351;52.284;9.160;2023-03-01T14:47:36;5.20;;;2.72;;
24206;SDS011;12351;52.284;9.160;2023-03-01T14:50:27;5.92;;;3.83;;
24206;SDS011;12351;52.284;9.160;2023-03-01T14:53:20;6.05;;;3.00;;
24206;SDS011;12351;52.284;9.160;2023-03-01T14:58:58;6.03;;;2.62;;
24206;SDS011;12351;52.284;9.160;2023-03-01T15:01:50;5.35;;;3.40;;
24206;SDS011;12351;52.284;9.160;2023-03-01T15:04:39;4.72;;;3.02;;
24206;SDS011;12351;52.284;9.160;2023-03-01T15:07:32;7.67;;;3.15;;
24206;SDS011;12351;52.284;9.160;2023-03-01T15:10:22;6.15;;;3.10;;
24206;SDS011;12351;52.284;9.160;2023-03-01T15:13:19;3.62;;;2.70;;
24206;SDS011;12351;52.284;9.160;2023-03-01T15:16:06;11.93;;;5.00;;
24206;SDS011;12351;52.284;9.160;2023-03-01T15:18:55;6.08;;;3.50;;
24206;SDS011;12351;52.284;9.160;2023-03-01T15:21:46;5.70;;;2.87;;
24206;SDS011;12351;52.284;9.160;2023-03-01T15:24:36;5.55;;;3.20;;
24206;SDS011;12351;52.284;9.160;2023-03-01T15:27:27;6.65;;;3.05;;
24206;SDS011;12351;52.284;9.160;2023-03-01T15:30:17;7.17;;;3.50;;
24206;SDS011;12351;52.284;9.160;2023-03-01T15:36:01;6.05;;;3.30;;
24206;SDS011;12351;52.284;9.160;2023-03-01T15:38:53;6.45;;;3.40;;
24206;SDS011;12351;52.284;9.160;2023-03-01T15:41:46;6.75;;;3.75;;
24206;SDS011;12351;52.284;9.160;2023-03-01T15:44:38;6.15;;;3.60;;
24206;SDS011;12351;52.284;9.160;2023-03-01T15:47:29;4.67;;;3.40;;
24206;SDS011;12351;52.284;9.160;2023-03-01T15:50:22;6.15;;;3.02;;
24206;SDS011;12351;52.284;9.160;2023-03-01T15:53:14;4.97;;;3.27;;
24206;SDS011;12351;52.284;9.160;2023-03-01T15:56:04;4.92;;;3.35;;
24206;SDS011;12351;52.284;9.160;2023-03-01T15:58:57;7.20;;;3.50;;
24206;SDS011;12351;52.284;9.160;2023-03-01T16:01:48;4.58;;;2.95;;
24206;SDS011;12351;52.284;9.160;2023-03-01T16:04:36;5.05;;;3.22;;
24206;SDS011;12351;52.284;9.160;2023-03-01T16:07:28;6.10;;;3.20;;
24206;SDS011;12351;52.284;9.160;2023-03-01T16:10:19;4.45;;;3.15;;
24206;SDS011;12351;52.284;9.160;2023-03-01T16:13:10;6.60;;;3.37;;
24206;SDS011;12351;52.284;9.160;2023-03-01T16:16:02;4.83;;;3.02;;
24206;SDS011;12351;52.284;9.160;2023-03-01T16:18:51;7.12;;;3.12;;
24206;SDS011;12351;52.284;9.160;2023-03-01T16:21:41;4.55;;;3.12;;
24206;SDS011;12351;52.284;9.160;2023-03-01T16:24:33;6.08;;;3.17;;
24206;SDS011;12351;52.284;9.160;2023-03-01T16:27:26;6.08;;;3.10;;
24206;SDS011;12351;52.284;9.160;2023-03-01T16:30:18;4.78;;;2.87;;
24206;SDS011;12351;52.284;9.160;2023-03-01T16:33:10;4.15;;;2.83;;
24206;SDS011;12351;52.284;9.160;2023-03-01T16:36:01;5.47;;;3.10;;
24206;SDS011;12351;52.284;9.160;2023-03-01T16:38:51;4.65;;;2.90;;
24206;SDS011;12351;52.284;9.160;2023-03-01T16:41:42;6.30;;;3.20;;
24206;SDS011;12351;52.284;9.160;2023-03-01T16:44:31;5.37;;;3.50;;
24206;SDS011;12351;52.284;9.160;2023-03-01T16:47:22;5.40;;;3.27;;
24206;SDS011;12351;52.284;9.160;2023-03-01T16:50:14;9.43;;;3.20;;
24206;SDS011;12351;52.284;9.160;2023-03-01T16:53:04;4.53;;;3.05;;
24206;SDS011;12351;52.284;9.160;2023-03-01T16:55:56;6.15;;;3.20;;
24206;SDS011;12351;52.284;9.160;2023-03-01T16:58:47;6.30;;;3.85;;
24206;SDS011;12351;52.284;9.160;2023-03-01T17:01:37;5.75;;;3.30;;
24206;SDS011;12351;52.284;9.160;2023-03-01T17:04:25;3.67;;;2.67;;
24206;SDS011;12351;52.284;9.160;2023-03-01T17:07:16;6.65;;;2.92;;
24206;SDS011;12351;52.284;9.160;2023-03-01T17:10:04;5.35;;;2.67;;
24206;SDS011;12351;52.284;9.160;2023-03-01T17:12:56;4.00;;;2.60;;
24206;SDS011;12351;52.284;9.160;2023-03-01T17:15:43;4.45;;;2.65;;
24206;SDS011;12351;52.284;9.160;2023-03-01T17:18:35;3.58;;;2.15;;
24206;SDS011;12351;52.284;9.160;2023-03-01T17:21:24;6.65;;;2.40;;
24206;SDS011;12351;52.284;9.160;2023-03-01T17:24:12;4.55;;;2.60;;
24206;SDS011;12351;52.284;9.160;2023-03-01T17:27:02;5.33;;;2.33;;
24206;SDS011;12351;52.284;9.160;2023-03-01T17:29:50;5.40;;;2.98;;
24206;SDS011;12351;52.284;9.160;2023-03-01T17:32:39;4.22;;;2.40;;
24206;SDS011;12351;52.284;9.160;2023-03-01T17:35:29;4.62;;;2.77;;
24206;SDS011;12351;52.284;9.160;2023-03-01T17:38:21;7.05;;;3.67;;
24206;SDS011;12351;52.284;9.160;2023-03-01T17:41:11;9.60;;;5.65;;
24206;SDS011;12351;52.284;9.160;2023-03-01T17:44:04;5.00;;;3.00;;
24206;SDS011;12351;52.284;9.160;2023-03-01T17:46:53;6.05;;;3.70;;
24206;SDS011;12351;52.284;9.160;2023-03-01T17:49:45;5.53;;;2.80;;
24206;SDS011;12351;52.284;9.160;2023-03-01T17:52:34;3.98;;;2.83;;
24206;SDS011;12351;52.284;9.160;2023-03-01T17:55:23;5.75;;;2.83;;
24206;SDS011;12351;52.284;9.160;2023-03-01T17:58:14;4.42;;;2.72;;
24206;SDS011;12351;52.284;9.160;2023-03-01T18:01:05;5.47;;;3.37;;
24206;SDS011;12351;52.284;9.160;2023-03-01T18:03:57;5.85;;;3.80;;
24206;SDS011;12351;52.284;9.160;2023-03-01T18:06:48;5.35;;;3.40;;
24206;SDS011;12351;52.284;9.160;2023-03-01T18:09:41;4.37;;;2.90;;
24206;SDS011;12351;52.284;9.160;2023-03-01T18:12:33;3.33;;;2.40;;
24206;SDS011;12351;52.284;9.160;2023-03-01T18:15:21;5.93;;;2.70;;
24206;SDS011;12351;52.284;9.160;2023-03-01T18:18:12;4.08;;;2.55;;
24206;SDS011;12351;52.284;9.160;2023-03-01T18:21:01;3.42;;;2.60;;
24206;SDS011;12351;52.284;9.160;2023-03-01T18:23:51;4.33;;;2.90;;
24206;SDS011;12351;52.284;9.160;2023-03-01T18:26:42;2.57;;;2.10;;
24206;SDS011;12351;52.284;9.160;2023-03-01T18:29:32;3.70;;;2.27;;
24206;SDS011;12351;52.284;9.160;2023-03-01T18:32:24;3.75;;;1.95;;
24206;SDS011;12351;52.284;9.160;2023-03-01T18:35:14;2.83;;;2.00;;
24206;SDS011;12351;52.284;9.160;2023-03-01T18:38:05;4.73;;;2.20;;
24206;SDS011;12351;52.284;9.160;2023-03-01T18:40:53;3.87;;;2.10;;
24206;SDS011;12351;52.284;9.160;2023-03-01T18:43:44;3.95;;;1.87;;
24206;SDS011;12351;52.284;9.160;2023-03-01T18:46:34;4.58;;;2.08;;
24206;SDS011;12351;52.284;9.160;2023-03-01T18:49:26;4.78;;;2.35;;
24206;SDS011;12351;52.284;9.160;2023-03-01T18:52:16;4.33;;;2.10;;
24206;SDS011;12351;52.284;9.160;2023-03-01T18:55:07;3.65;;;2.20;;
24206;SDS011;12351;52.284;9.160;2023-03-01T18:57:57;3.83;;;2.05;;
24206;SDS011;12351;52.284;9.160;2023-03-01T19:00:45;3.02;;;2.08;;
24206;SDS011;12351;52.284;9.160;2023-03-01T19:03:38;3.77;;;2.20;;
24206;SDS011;12351;52.284;9.160;2023-03-01T19:06:29;3.30;;;1.85;;
24206;SDS011;12351;52.284;9.160;2023-03-01T19:09:19;5.15;;;2.40;;
24206;SDS011;12351;52.284;9.160;2023-03-01T19:12:09;3.83;;;2.37;;
24206;SDS011;12351;52.284;9.160;2023-03-01T19:15:01;4.40;;;2.12;;
24206;SDS011;12351;52.284;9.160;2023-03-01T19:17:51;5.42;;;2.55;;
24206;SDS011;12351;52.284;9.160;2023-03-01T19:20:43;3.47;;;2.22;;
24206;SDS011;12351;52.284;9.160;2023-03-01T19:23:32;4.67;;;2.83;;
24206;SDS011;12351;52.284;9.160;2023-03-01T19:26:24;4.85;;;2.65;;
24206;SDS011;12351;52.284;9.160;2023-03-01T19:29:13;5.08;;;2.33;;
24206;SDS011;12351;52.284;9.160;2023-03-01T19:32:04;4.95;;;2.20;;
24206;SDS011;12351;52.284;9.160;2023-03-01T19:34:54;5.12;;;2.30;;
24206;SDS011;12351;52.284;9.160;2023-03-01T19:37:45;5.83;;;2.33;;
24206;SDS011;12351;52.284;9.160;2023-03-01T19:40:34;4.15;;;2.30;;
24206;SDS011;12351;52.284;9.160;2023-03-01T19:43:25;4.12;;;2.58;;
24206;SDS011;12351;52.284;9.160;2023-03-01T19:46:16;4.30;;;2.60;;